<?xml version="1.0" encoding="UTF-8" standalone="no" ?>
<gpx xmlns="http://www.topografix.com/GPX/1/1" xmlns:xsi="http://www.w3.org/2001/XMLSchema-instance" xsi:schemaLocation="http://www.topografix.com/GPX/1/1 http://www.topografix.com/GPX/1/1/gpx.xsd" version="1.1" creator="VisuGPX - https://www.visugpx.com">
  <metadata>
    <name>Pont-Aven - Bois d\\\'amour  Avec Riec</name>
    <desc><![CDATA[rando avec une trentaine de participants, un temps sec mais couvert. Pa de difficultés.]]></desc>
  </metadata>
  <trk>
    <name><![CDATA[26-NOV-13 16:12:26]]></name>
    <trkseg>
      <trkpt lat="47.85753" lon="-3.74638">
        <ele>-8.03</ele>
        <time>2013-11-26T12:56:34Z</time>
      </trkpt>
      <trkpt lat="47.85995" lon="-3.74408">
        <ele>-21.97</ele>
        <time>2013-11-26T13:02:27Z</time>
      </trkpt>
      <trkpt lat="47.86064" lon="-3.73998">
        <ele>12.63</ele>
        <time>2013-11-26T13:06:13Z</time>
      </trkpt>
      <trkpt lat="47.8607" lon="-3.73712">
        <ele>-12.36</ele>
        <time>2013-11-26T13:08:45Z</time>
      </trkpt>
      <trkpt lat="47.86161" lon="-3.73585">
        <ele>-9.96</ele>
        <time>2013-11-26T13:10:40Z</time>
      </trkpt>
      <trkpt lat="47.86347" lon="-3.73608">
        <ele>25.13</ele>
        <time>2013-11-26T13:13:21Z</time>
      </trkpt>
      <trkpt lat="47.8645" lon="-3.73346">
        <ele>-6.59</ele>
        <time>2013-11-26T13:16:40Z</time>
      </trkpt>
      <trkpt lat="47.86413" lon="-3.72976">
        <ele>8.79</ele>
        <time>2013-11-26T13:19:36Z</time>
      </trkpt>
      <trkpt lat="47.86485" lon="-3.72758">
        <ele>5.42</ele>
        <time>2013-11-26T13:22:52Z</time>
      </trkpt>
      <trkpt lat="47.86675" lon="-3.72719">
        <ele>-13.32</ele>
        <time>2013-11-26T13:25:36Z</time>
      </trkpt>
      <trkpt lat="47.8686" lon="-3.72744">
        <ele>-34.47</ele>
        <time>2013-11-26T13:28:16Z</time>
      </trkpt>
      <trkpt lat="47.87003" lon="-3.72982">
        <ele>15.04</ele>
        <time>2013-11-26T13:32:32Z</time>
      </trkpt>
      <trkpt lat="47.87058" lon="-3.73168">
        <ele>48.68</ele>
        <time>2013-11-26T13:39:21Z</time>
      </trkpt>
      <trkpt lat="47.87008" lon="-3.73447">
        <ele>50.13</ele>
        <time>2013-11-26T13:42:00Z</time>
      </trkpt>
      <trkpt lat="47.87111" lon="-3.73544">
        <ele>60.22</ele>
        <time>2013-11-26T13:43:45Z</time>
      </trkpt>
      <trkpt lat="47.87257" lon="-3.73592">
        <ele>65.03</ele>
        <time>2013-11-26T13:45:45Z</time>
      </trkpt>
      <trkpt lat="47.87383" lon="-3.73678">
        <ele>68.39</ele>
        <time>2013-11-26T13:47:36Z</time>
      </trkpt>
      <trkpt lat="47.87427" lon="-3.73779">
        <ele>71.76</ele>
        <time>2013-11-26T13:48:58Z</time>
      </trkpt>
      <trkpt lat="47.87407" lon="-3.73916">
        <ele>72.24</ele>
        <time>2013-11-26T13:50:11Z</time>
      </trkpt>
      <trkpt lat="47.8738" lon="-3.74056">
        <ele>66.47</ele>
        <time>2013-11-26T13:51:27Z</time>
      </trkpt>
      <trkpt lat="47.87364" lon="-3.74194">
        <ele>67.43</ele>
        <time>2013-11-26T13:52:39Z</time>
      </trkpt>
      <trkpt lat="47.87335" lon="-3.7435">
        <ele>65.99</ele>
        <time>2013-11-26T13:54:06Z</time>
      </trkpt>
      <trkpt lat="47.87285" lon="-3.74483">
        <ele>64.07</ele>
        <time>2013-11-26T13:55:24Z</time>
      </trkpt>
      <trkpt lat="47.87257" lon="-3.74635">
        <ele>61.66</ele>
        <time>2013-11-26T13:56:56Z</time>
      </trkpt>
      <trkpt lat="47.8716" lon="-3.74635">
        <ele>66.95</ele>
        <time>2013-11-26T13:58:15Z</time>
      </trkpt>
      <trkpt lat="47.87078" lon="-3.74475">
        <ele>46.76</ele>
        <time>2013-11-26T14:00:27Z</time>
      </trkpt>
      <trkpt lat="47.86942" lon="-3.74462">
        <ele>49.16</ele>
        <time>2013-11-26T14:02:20Z</time>
      </trkpt>
      <trkpt lat="47.86787" lon="-3.74501">
        <ele>55.41</ele>
        <time>2013-11-26T14:04:35Z</time>
      </trkpt>
      <trkpt lat="47.86647" lon="-3.74577">
        <ele>65.51</ele>
        <time>2013-11-26T14:06:44Z</time>
      </trkpt>
      <trkpt lat="47.86597" lon="-3.74744">
        <ele>53.49</ele>
        <time>2013-11-26T14:08:59Z</time>
      </trkpt>
      <trkpt lat="47.86455" lon="-3.74898">
        <ele>62.14</ele>
        <time>2013-11-26T14:11:42Z</time>
      </trkpt>
      <trkpt lat="47.86345" lon="-3.75087">
        <ele>65.99</ele>
        <time>2013-11-26T14:14:50Z</time>
      </trkpt>
      <trkpt lat="47.86308" lon="-3.75177">
        <ele>53.97</ele>
        <time>2013-11-26T14:22:58Z</time>
      </trkpt>
      <trkpt lat="47.86311" lon="-3.75443">
        <ele>56.37</ele>
        <time>2013-11-26T14:25:17Z</time>
      </trkpt>
      <trkpt lat="47.86269" lon="-3.75591">
        <ele>63.58</ele>
        <time>2013-11-26T14:27:10Z</time>
      </trkpt>
      <trkpt lat="47.86155" lon="-3.75662">
        <ele>58.78</ele>
        <time>2013-11-26T14:28:47Z</time>
      </trkpt>
      <trkpt lat="47.8605" lon="-3.75617">
        <ele>35.23</ele>
        <time>2013-11-26T14:30:28Z</time>
      </trkpt>
      <trkpt lat="47.85976" lon="-3.75635">
        <ele>18.4</ele>
        <time>2013-11-26T14:32:29Z</time>
      </trkpt>
      <trkpt lat="47.85971" lon="-3.75862">
        <ele>23.21</ele>
        <time>2013-11-26T14:35:15Z</time>
      </trkpt>
      <trkpt lat="47.86007" lon="-3.76045">
        <ele>34.26</ele>
        <time>2013-11-26T14:37:06Z</time>
      </trkpt>
      <trkpt lat="47.85963" lon="-3.76092">
        <ele>33.78</ele>
        <time>2013-11-26T14:38:43Z</time>
      </trkpt>
      <trkpt lat="47.85835" lon="-3.7622">
        <ele>27.05</ele>
        <time>2013-11-26T14:42:43Z</time>
      </trkpt>
      <trkpt lat="47.85709" lon="-3.7626">
        <ele>33.3</ele>
        <time>2013-11-26T14:45:35Z</time>
      </trkpt>
      <trkpt lat="47.85613" lon="-3.76225">
        <ele>35.23</ele>
        <time>2013-11-26T14:47:03Z</time>
      </trkpt>
      <trkpt lat="47.85549" lon="-3.76266">
        <ele>38.59</ele>
        <time>2013-11-26T14:48:56Z</time>
      </trkpt>
      <trkpt lat="47.85466" lon="-3.76117">
        <ele>41.95</ele>
        <time>2013-11-26T14:50:44Z</time>
      </trkpt>
      <trkpt lat="47.85447" lon="-3.75962">
        <ele>41.47</ele>
        <time>2013-11-26T14:52:06Z</time>
      </trkpt>
      <trkpt lat="47.85402" lon="-3.75837">
        <ele>34.26</ele>
        <time>2013-11-26T14:53:24Z</time>
      </trkpt>
      <trkpt lat="47.85323" lon="-3.75727">
        <ele>29.94</ele>
        <time>2013-11-26T14:54:59Z</time>
      </trkpt>
      <trkpt lat="47.85307" lon="-3.75575">
        <ele>27.05</ele>
        <time>2013-11-26T14:56:31Z</time>
      </trkpt>
      <trkpt lat="47.85332" lon="-3.75413">
        <ele>32.82</ele>
        <time>2013-11-26T14:57:56Z</time>
      </trkpt>
      <trkpt lat="47.85369" lon="-3.75231">
        <ele>30.9</ele>
        <time>2013-11-26T14:59:38Z</time>
      </trkpt>
      <trkpt lat="47.85412" lon="-3.75062">
        <ele>36.19</ele>
        <time>2013-11-26T15:01:20Z</time>
      </trkpt>
      <trkpt lat="47.85445" lon="-3.74947">
        <ele>4.94</ele>
        <time>2013-11-26T15:03:30Z</time>
      </trkpt>
      <trkpt lat="47.85513" lon="-3.74868">
        <ele>-16.21</ele>
        <time>2013-11-26T15:05:29Z</time>
      </trkpt>
      <trkpt lat="47.85625" lon="-3.74785">
        <ele>2.06</ele>
        <time>2013-11-26T15:07:49Z</time>
      </trkpt>
      <trkpt lat="47.85689" lon="-3.747">
        <ele>4.94</ele>
        <time>2013-11-26T15:09:57Z</time>
      </trkpt>
    </trkseg>
  </trk>
</gpx>